sensor_id;sensor_type;location;lat;lon;timestamp;P1;durP1;ratioP1;P2;durP2;ratioP2
57231;SDS011;43488;46.934;8.276;2023-06-14T00:01:59;581.85;;;369.27;;
57231;SDS011;43488;46.934;8.276;2023-06-14T00:04:26;580.05;;;361.02;;
57231;SDS011;43488;46.934;8.276;2023-06-14T00:06:55;597.00;;;293.67;;
57231;SDS011;43488;46.934;8.276;2023-06-14T00:09:24;606.10;;;305.00;;
57231;SDS011;43488;46.934;8.276;2023-06-14T00:11:51;578.45;;;360.58;;
57231;SDS011;43488;46.934;8.276;2023-06-14T00:14:19;585.00;;;369.90;;
57231;SDS011;43488;46.934;8.276;2023-06-14T00:16:47;599.85;;;289.17;;
57231;SDS011;43488;46.934;8.276;2023-06-14T00:19:14;601.85;;;295.27;;
57231;SDS011;43488;46.934;8.276;2023-06-14T00:21:42;571.97;;;356.13;;
57231;SDS011;43488;46.934;8.276;2023-06-14T00:24:10;577.95;;;358.52;;
57231;SDS011;43488;46.934;8.276;2023-06-14T00:26:37;601.45;;;297.80;;
57231;SDS011;43488;46.934;8.276;2023-06-14T00:29:05;580.35;;;361.85;;
57231;SDS011;43488;46.934;8.276;2023-06-14T00:31:32;573.40;;;357.27;;
57231;SDS011;43488;46.934;8.276;2023-06-14T00:33:59;574.90;;;354.83;;
57231;SDS011;43488;46.934;8.276;2023-06-14T00:36:27;577.58;;;364.42;;
57231;SDS011;43488;46.934;8.276;2023-06-14T00:38:54;570.72;;;354.70;;
57231;SDS011;43488;46.934;8.276;2023-06-14T00:41:22;579.33;;;345.08;;
57231;SDS011;43488;46.934;8.276;2023-06-14T00:43:50;596.05;;;262.38;;
57231;SDS011;43488;46.934;8.276;2023-06-14T00:46:18;559.92;;;320.33;;
57231;SDS011;43488;46.934;8.276;2023-06-14T00:48:46;604.35;;;277.15;;
57231;SDS011;43488;46.934;8.276;2023-06-14T00:51:14;575.85;;;238.18;;
57231;SDS011;43488;46.934;8.276;2023-06-14T00:53:42;562.65;;;327.85;;
57231;SDS011;43488;46.934;8.276;2023-06-14T00:58:41;590.03;;;242.43;;
57231;SDS011;43488;46.934;8.276;2023-06-14T01:01:09;583.80;;;241.73;;
57231;SDS011;43488;46.934;8.276;2023-06-14T01:03:37;736.33;;;241.50;;
57231;SDS011;43488;46.934;8.276;2023-06-14T01:06:11;772.22;;;256.92;;
57231;SDS011;43488;46.934;8.276;2023-06-14T01:12:15;579.00;;;231.80;;
57231;SDS011;43488;46.934;8.276;2023-06-14T01:15:26;564.08;;;319.30;;
57231;SDS011;43488;46.934;8.276;2023-06-14T01:17:57;568.50;;;329.45;;
57231;SDS011;43488;46.934;8.276;2023-06-14T01:20:32;578.25;;;326.65;;
57231;SDS011;43488;46.934;8.276;2023-06-14T01:23:03;596.03;;;247.13;;
57231;SDS011;43488;46.934;8.276;2023-06-14T01:25:30;556.50;;;310.88;;
57231;SDS011;43488;46.934;8.276;2023-06-14T01:28:05;567.25;;;224.52;;
57231;SDS011;43488;46.934;8.276;2023-06-14T01:30:37;571.05;;;224.05;;
57231;SDS011;43488;46.934;8.276;2023-06-14T01:33:12;603.75;;;267.35;;
57231;SDS011;43488;46.934;8.276;2023-06-14T01:35:45;579.65;;;340.35;;
57231;SDS011;43488;46.934;8.276;2023-06-14T01:38:15;558.40;;;316.85;;
57231;SDS011;43488;46.934;8.276;2023-06-14T01:40:45;553.80;;;307.13;;
57231;SDS011;43488;46.934;8.276;2023-06-14T01:43:16;566.22;;;322.75;;
57231;SDS011;43488;46.934;8.276;2023-06-14T01:45:45;562.03;;;325.13;;
57231;SDS011;43488;46.934;8.276;2023-06-14T01:48:15;800.57;;;292.43;;
57231;SDS011;43488;46.934;8.276;2023-06-14T01:50:43;803.53;;;290.90;;
57231;SDS011;43488;46.934;8.276;2023-06-14T01:53:10;801.35;;;293.30;;
57231;SDS011;43488;46.934;8.276;2023-06-14T01:55:37;765.22;;;250.63;;
57231;SDS011;43488;46.934;8.276;2023-06-14T01:58:05;644.33;;;240.50;;
57231;SDS011;43488;46.934;8.276;2023-06-14T02:00:32;535.83;;;313.20;;
57231;SDS011;43488;46.934;8.276;2023-06-14T02:03:00;669.72;;;264.98;;
57231;SDS011;43488;46.934;8.276;2023-06-14T02:05:27;577.13;;;226.77;;
57231;SDS011;43488;46.934;8.276;2023-06-14T02:07:54;576.85;;;233.57;;
57231;SDS011;43488;46.934;8.276;2023-06-14T02:10:22;747.88;;;250.85;;
57231;SDS011;43488;46.934;8.276;2023-06-14T02:12:50;780.17;;;271.08;;
57231;SDS011;43488;46.934;8.276;2023-06-14T02:15:18;784.65;;;272.88;;
57231;SDS011;43488;46.934;8.276;2023-06-14T02:17:46;793.70;;;277.45;;
57231;SDS011;43488;46.934;8.276;2023-06-14T02:20:15;800.30;;;286.88;;
57231;SDS011;43488;46.934;8.276;2023-06-14T02:22:45;653.33;;;282.42;;
57231;SDS011;43488;46.934;8.276;2023-06-14T02:25:12;664.50;;;283.35;;
57231;SDS011;43488;46.934;8.276;2023-06-14T02:27:40;656.63;;;291.33;;
57231;SDS011;43488;46.934;8.276;2023-06-14T02:30:07;659.97;;;295.25;;
57231;SDS011;43488;46.934;8.276;2023-06-14T02:32:35;644.83;;;282.15;;
57231;SDS011;43488;46.934;8.276;2023-06-14T02:35:02;649.67;;;284.10;;
57231;SDS011;43488;46.934;8.276;2023-06-14T02:37:31;652.28;;;277.08;;
57231;SDS011;43488;46.934;8.276;2023-06-14T02:39:58;674.47;;;296.60;;
57231;SDS011;43488;46.934;8.276;2023-06-14T02:42:25;686.63;;;313.17;;
57231;SDS011;43488;46.934;8.276;2023-06-14T02:44:53;691.35;;;307.75;;
57231;SDS011;43488;46.934;8.276;2023-06-14T02:47:21;692.30;;;294.25;;
57231;SDS011;43488;46.934;8.276;2023-06-14T02:49:49;709.72;;;316.17;;
57231;SDS011;43488;46.934;8.276;2023-06-14T02:52:16;702.63;;;310.85;;
57231;SDS011;43488;46.934;8.276;2023-06-14T02:54:43;697.40;;;295.00;;
57231;SDS011;43488;46.934;8.276;2023-06-14T02:57:11;677.40;;;287.15;;
57231;SDS011;43488;46.934;8.276;2023-06-14T02:59:39;706.80;;;294.73;;
57231;SDS011;43488;46.934;8.276;2023-06-14T03:02:07;671.10;;;284.73;;
57231;SDS011;43488;46.934;8.276;2023-06-14T03:04:35;647.22;;;279.30;;
57231;SDS011;43488;46.934;8.276;2023-06-14T03:07:03;647.75;;;263.05;;
57231;SDS011;43488;46.934;8.276;2023-06-14T03:09:35;679.28;;;261.75;;
57231;SDS011;43488;46.934;8.276;2023-06-14T03:12:07;700.15;;;318.42;;
57231;SDS011;43488;46.934;8.276;2023-06-14T03:14:37;695.40;;;303.73;;
57231;SDS011;43488;46.934;8.276;2023-06-14T03:17:05;696.88;;;310.27;;
57231;SDS011;43488;46.934;8.276;2023-06-14T03:19:34;698.60;;;308.05;;
57231;SDS011;43488;46.934;8.276;2023-06-14T03:22:01;692.03;;;304.33;;
57231;SDS011;43488;46.934;8.276;2023-06-14T03:24:31;703.50;;;307.33;;
57231;SDS011;43488;46.934;8.276;2023-06-14T03:27:03;713.58;;;321.88;;
57231;SDS011;43488;46.934;8.276;2023-06-14T03:29:30;682.67;;;262.73;;
57231;SDS011;43488;46.934;8.276;2023-06-14T03:32:01;728.17;;;315.27;;
57231;SDS011;43488;46.934;8.276;2023-06-14T03:34:29;721.13;;;298.02;;
57231;SDS011;43488;46.934;8.276;2023-06-14T03:36:56;719.72;;;300.58;;
57231;SDS011;43488;46.934;8.276;2023-06-14T03:39:24;725.40;;;313.98;;
57231;SDS011;43488;46.934;8.276;2023-06-14T03:41:52;707.10;;;304.73;;
57231;SDS011;43488;46.934;8.276;2023-06-14T03:44:20;713.83;;;306.17;;
57231;SDS011;43488;46.934;8.276;2023-06-14T03:46:47;737.58;;;318.85;;
57231;SDS011;43488;46.934;8.276;2023-06-14T03:49:15;729.78;;;303.48;;
57231;SDS011;43488;46.934;8.276;2023-06-14T03:51:43;736.40;;;314.27;;
57231;SDS011;43488;46.934;8.276;2023-06-14T03:54:11;739.05;;;316.10;;
57231;SDS011;43488;46.934;8.276;2023-06-14T03:56:38;723.20;;;305.45;;
57231;SDS011;43488;46.934;8.276;2023-06-14T03:59:06;719.85;;;299.13;;
57231;SDS011;43488;46.934;8.276;2023-06-14T04:01:33;731.33;;;309.38;;
57231;SDS011;43488;46.934;8.276;2023-06-14T04:04:00;738.72;;;308.27;;
57231;SDS011;43488;46.934;8.276;2023-06-14T04:06:28;738.25;;;318.38;;
57231;SDS011;43488;46.934;8.276;2023-06-14T04:08:59;731.53;;;313.13;;
57231;SDS011;43488;46.934;8.276;2023-06-14T04:11:30;736.20;;;315.98;;
57231;SDS011;43488;46.934;8.276;2023-06-14T04:13:59;728.65;;;307.73;;
57231;SDS011;43488;46.934;8.276;2023-06-14T04:16:28;727.65;;;310.88;;
57231;SDS011;43488;46.934;8.276;2023-06-14T04:18:55;719.35;;;301.80;;
57231;SDS011;43488;46.934;8.276;2023-06-14T04:21:25;721.90;;;309.65;;
57231;SDS011;43488;46.934;8.276;2023-06-14T04:23:55;733.00;;;313.37;;
57231;SDS011;43488;46.934;8.276;2023-06-14T04:26:22;715.95;;;292.15;;
57231;SDS011;43488;46.934;8.276;2023-06-14T04:28:52;712.63;;;293.67;;
57231;SDS011;43488;46.934;8.276;2023-06-14T04:31:23;737.30;;;323.77;;
57231;SDS011;43488;46.934;8.276;2023-06-14T04:33:51;728.13;;;287.88;;
57231;SDS011;43488;46.934;8.276;2023-06-14T04:36:20;738.85;;;298.25;;
57231;SDS011;43488;46.934;8.276;2023-06-14T04:38:47;736.78;;;294.35;;
57231;SDS011;43488;46.934;8.276;2023-06-14T04:41:15;749.78;;;314.58;;
57231;SDS011;43488;46.934;8.276;2023-06-14T04:43:44;751.83;;;308.52;;
57231;SDS011;43488;46.934;8.276;2023-06-14T04:46:15;741.05;;;300.40;;
57231;SDS011;43488;46.934;8.276;2023-06-14T04:48:43;754.55;;;315.00;;
57231;SDS011;43488;46.934;8.276;2023-06-14T04:51:12;745.60;;;306.98;;
57231;SDS011;43488;46.934;8.276;2023-06-14T04:53:39;744.08;;;304.48;;
57231;SDS011;43488;46.934;8.276;2023-06-14T04:56:06;747.83;;;309.33;;
57231;SDS011;43488;46.934;8.276;2023-06-14T04:58:34;758.80;;;324.33;;
57231;SDS011;43488;46.934;8.276;2023-06-14T05:01:01;748.75;;;319.27;;
57231;SDS011;43488;46.934;8.276;2023-06-14T05:03:29;755.33;;;316.45;;
57231;SDS011;43488;46.934;8.276;2023-06-14T05:05:57;748.50;;;312.50;;
57231;SDS011;43488;46.934;8.276;2023-06-14T05:08:24;757.60;;;306.77;;
57231;SDS011;43488;46.934;8.276;2023-06-14T05:10:52;733.75;;;284.50;;
57231;SDS011;43488;46.934;8.276;2023-06-14T05:13:20;764.42;;;320.27;;
57231;SDS011;43488;46.934;8.276;2023-06-14T05:15:51;755.47;;;315.03;;
57231;SDS011;43488;46.934;8.276;2023-06-14T05:18:19;764.28;;;325.23;;
57231;SDS011;43488;46.934;8.276;2023-06-14T05:20:46;764.67;;;322.25;;
57231;SDS011;43488;46.934;8.276;2023-06-14T05:23:16;754.75;;;302.02;;
57231;SDS011;43488;46.934;8.276;2023-06-14T05:25:43;756.38;;;311.70;;
57231;SDS011;43488;46.934;8.276;2023-06-14T05:28:12;767.15;;;322.25;;
57231;SDS011;43488;46.934;8.276;2023-06-14T05:30:40;763.03;;;328.33;;
57231;SDS011;43488;46.934;8.276;2023-06-14T05:33:08;749.97;;;308.90;;
57231;SDS011;43488;46.934;8.276;2023-06-14T05:35:35;748.25;;;311.13;;
57231;SDS011;43488;46.934;8.276;2023-06-14T05:38:04;756.40;;;322.38;;
57231;SDS011;43488;46.934;8.276;2023-06-14T05:40:32;758.95;;;333.98;;
57231;SDS011;43488;46.934;8.276;2023-06-14T05:42:59;752.53;;;314.73;;
57231;SDS011;43488;46.934;8.276;2023-06-14T05:45:27;749.83;;;316.17;;
57231;SDS011;43488;46.934;8.276;2023-06-14T05:47:54;758.05;;;326.75;;
57231;SDS011;43488;46.934;8.276;2023-06-14T05:50:21;763.25;;;338.58;;
57231;SDS011;43488;46.934;8.276;2023-06-14T05:52:49;752.53;;;318.58;;
57231;SDS011;43488;46.934;8.276;2023-06-14T05:55:16;755.78;;;321.73;;
57231;SDS011;43488;46.934;8.276;2023-06-14T05:57:44;750.55;;;311.30;;
57231;SDS011;43488;46.934;8.276;2023-06-14T06:00:12;753.75;;;321.55;;
57231;SDS011;43488;46.934;8.276;2023-06-14T06:02:43;742.33;;;306.35;;
57231;SDS011;43488;46.934;8.276;2023-06-14T06:05:11;737.28;;;304.17;;
57231;SDS011;43488;46.934;8.276;2023-06-14T06:07:40;753.22;;;318.77;;
57231;SDS011;43488;46.934;8.276;2023-06-14T06:10:08;750.45;;;325.02;;
57231;SDS011;43488;46.934;8.276;2023-06-14T06:12:36;740.72;;;302.52;;
57231;SDS011;43488;46.934;8.276;2023-06-14T06:15:06;745.10;;;311.38;;
57231;SDS011;43488;46.934;8.276;2023-06-14T06:17:34;743.70;;;312.65;;
57231;SDS011;43488;46.934;8.276;2023-06-14T06:20:04;738.22;;;310.88;;
57231;SDS011;43488;46.934;8.276;2023-06-14T06:22:34;745.25;;;311.27;;
57231;SDS011;43488;46.934;8.276;2023-06-14T06:25:01;697.45;;;291.20;;
57231;SDS011;43488;46.934;8.276;2023-06-14T06:27:32;694.63;;;298.27;;
57231;SDS011;43488;46.934;8.276;2023-06-14T06:29:59;705.38;;;305.60;;
57231;SDS011;43488;46.934;8.276;2023-06-14T06:32:26;723.30;;;315.20;;
57231;SDS011;43488;46.934;8.276;2023-06-14T06:34:53;722.25;;;319.88;;
57231;SDS011;43488;46.934;8.276;2023-06-14T06:37:21;673.78;;;293.20;;
57231;SDS011;43488;46.934;8.276;2023-06-14T06:39:48;695.40;;;300.98;;
57231;SDS011;43488;46.934;8.276;2023-06-14T06:42:15;689.92;;;303.17;;
57231;SDS011;43488;46.934;8.276;2023-06-14T06:44:42;743.20;;;322.77;;
57231;SDS011;43488;46.934;8.276;2023-06-14T06:47:10;708.72;;;305.63;;
57231;SDS011;43488;46.934;8.276;2023-06-14T06:49:38;767.75;;;310.83;;
57231;SDS011;43488;46.934;8.276;2023-06-14T06:52:06;806.47;;;311.67;;
57231;SDS011;43488;46.934;8.276;2023-06-14T06:54:34;791.58;;;313.15;;
57231;SDS011;43488;46.934;8.276;2023-06-14T06:57:02;786.33;;;322.52;;
57231;SDS011;43488;46.934;8.276;2023-06-14T06:59:30;735.45;;;305.23;;
57231;SDS011;43488;46.934;8.276;2023-06-14T07:01:58;765.45;;;332.00;;
57231;SDS011;43488;46.934;8.276;2023-06-14T07:04:26;703.05;;;308.13;;
57231;SDS011;43488;46.934;8.276;2023-06-14T07:06:53;683.13;;;291.85;;
57231;SDS011;43488;46.934;8.276;2023-06-14T07:09:21;731.22;;;321.50;;
57231;SDS011;43488;46.934;8.276;2023-06-14T07:11:49;749.00;;;319.77;;
57231;SDS011;43488;46.934;8.276;2023-06-14T07:14:17;758.08;;;320.35;;
57231;SDS011;43488;46.934;8.276;2023-06-14T07:16:44;742.63;;;314.02;;
57231;SDS011;43488;46.934;8.276;2023-06-14T07:19:13;711.45;;;246.13;;
57231;SDS011;43488;46.934;8.276;2023-06-14T07:21:40;623.08;;;229.25;;
57231;SDS011;43488;46.934;8.276;2023-06-14T07:24:08;710.37;;;280.03;;
57231;SDS011;43488;46.934;8.276;2023-06-14T07:26:35;801.60;;;280.52;;
57231;SDS011;43488;46.934;8.276;2023-06-14T07:29:03;811.88;;;295.60;;
57231;SDS011;43488;46.934;8.276;2023-06-14T07:31:30;814.80;;;301.65;;
57231;SDS011;43488;46.934;8.276;2023-06-14T07:33:58;821.65;;;311.70;;
57231;SDS011;43488;46.934;8.276;2023-06-14T07:36:26;806.38;;;312.25;;
57231;SDS011;43488;46.934;8.276;2023-06-14T07:38:53;806.88;;;320.00;;
57231;SDS011;43488;46.934;8.276;2023-06-14T07:41:20;788.28;;;307.85;;
57231;SDS011;43488;46.934;8.276;2023-06-14T07:43:55;800.40;;;291.10;;
57231;SDS011;43488;46.934;8.276;2023-06-14T07:46:22;797.28;;;290.23;;
57231;SDS011;43488;46.934;8.276;2023-06-14T07:48:50;806.20;;;317.08;;
57231;SDS011;43488;46.934;8.276;2023-06-14T07:51:17;790.65;;;295.70;;
57231;SDS011;43488;46.934;8.276;2023-06-14T07:53:45;795.90;;;298.48;;
57231;SDS011;43488;46.934;8.276;2023-06-14T07:56:13;789.15;;;306.55;;
57231;SDS011;43488;46.934;8.276;2023-06-14T07:58:40;801.65;;;310.63;;
57231;SDS011;43488;46.934;8.276;2023-06-14T08:01:09;817.25;;;315.65;;
57231;SDS011;43488;46.934;8.276;2023-06-14T08:03:38;801.40;;;295.83;;
57231;SDS011;43488;46.934;8.276;2023-06-14T08:06:06;814.45;;;310.23;;
57231;SDS011;43488;46.934;8.276;2023-06-14T08:08:34;816.90;;;312.50;;
57231;SDS011;43488;46.934;8.276;2023-06-14T08:11:01;804.67;;;295.83;;
57231;SDS011;43488;46.934;8.276;2023-06-14T08:13:28;824.58;;;318.95;;
57231;SDS011;43488;46.934;8.276;2023-06-14T08:15:56;811.20;;;302.05;;
57231;SDS011;43488;46.934;8.276;2023-06-14T08:18:24;822.95;;;322.45;;
57231;SDS011;43488;46.934;8.276;2023-06-14T08:20:55;778.50;;;315.42;;
57231;SDS011;43488;46.934;8.276;2023-06-14T08:23:24;808.53;;;300.30;;
57231;SDS011;43488;46.934;8.276;2023-06-14T08:25:52;790.15;;;281.15;;
57231;SDS011;43488;46.934;8.276;2023-06-14T08:28:20;819.17;;;308.20;;
57231;SDS011;43488;46.934;8.276;2023-06-14T08:30:47;803.22;;;302.38;;
57231;SDS011;43488;46.934;8.276;2023-06-14T08:33:14;773.40;;;327.40;;
57231;SDS011;43488;46.934;8.276;2023-06-14T08:35:42;717.63;;;322.92;;
57231;SDS011;43488;46.934;8.276;2023-06-14T08:38:10;722.67;;;317.17;;
57231;SDS011;43488;46.934;8.276;2023-06-14T08:40:38;668.90;;;291.50;;
57231;SDS011;43488;46.934;8.276;2023-06-14T08:43:08;637.83;;;274.37;;
57231;SDS011;43488;46.934;8.276;2023-06-14T08:45:36;674.58;;;296.42;;
57231;SDS011;43488;46.934;8.276;2023-06-14T08:48:05;662.65;;;293.88;;
57231;SDS011;43488;46.934;8.276;2023-06-14T08:50:34;718.17;;;303.80;;
57231;SDS011;43488;46.934;8.276;2023-06-14T08:53:06;684.53;;;278.20;;
57231;SDS011;43488;46.934;8.276;2023-06-14T08:58:06;785.90;;;323.77;;
57231;SDS011;43488;46.934;8.276;2023-06-14T09:00:35;772.55;;;295.17;;
57231;SDS011;43488;46.934;8.276;2023-06-14T09:03:05;786.72;;;320.58;;
57231;SDS011;43488;46.934;8.276;2023-06-14T09:05:40;794.85;;;337.27;;
57231;SDS011;43488;46.934;8.276;2023-06-14T09:08:07;802.13;;;335.17;;
57231;SDS011;43488;46.934;8.276;2023-06-14T09:10:38;774.73;;;310.13;;
57231;SDS011;43488;46.934;8.276;2023-06-14T09:13:08;669.27;;;295.90;;
57231;SDS011;43488;46.934;8.276;2023-06-14T09:15:36;676.55;;;296.52;;
57231;SDS011;43488;46.934;8.276;2023-06-14T09:18:03;650.08;;;283.35;;
57231;SDS011;43488;46.934;8.276;2023-06-14T09:20:32;740.92;;;287.80;;
57231;SDS011;43488;46.934;8.276;2023-06-14T09:23:00;719.70;;;311.80;;
57231;SDS011;43488;46.934;8.276;2023-06-14T09:25:31;690.80;;;307.27;;
57231;SDS011;43488;46.934;8.276;2023-06-14T09:28:08;803.90;;;323.80;;
57231;SDS011;43488;46.934;8.276;2023-06-14T09:30:37;809.97;;;327.67;;
57231;SDS011;43488;46.934;8.276;2023-06-14T09:33:05;813.47;;;332.73;;
57231;SDS011;43488;46.934;8.276;2023-06-14T09:35:33;820.00;;;311.65;;
57231;SDS011;43488;46.934;8.276;2023-06-14T09:38:02;749.70;;;262.48;;
57231;SDS011;43488;46.934;8.276;2023-06-14T09:40:33;783.65;;;281.60;;
57231;SDS011;43488;46.934;8.276;2023-06-14T09:43:04;751.72;;;258.70;;
57231;SDS011;43488;46.934;8.276;2023-06-14T09:45:36;766.50;;;277.10;;
57231;SDS011;43488;46.934;8.276;2023-06-14T09:48:07;768.03;;;255.88;;
57231;SDS011;43488;46.934;8.276;2023-06-14T09:50:35;783.60;;;272.75;;
57231;SDS011;43488;46.934;8.276;2023-06-14T09:53:03;604.60;;;253.63;;
57231;SDS011;43488;46.934;8.276;2023-06-14T09:55:34;566.35;;;303.50;;
57231;SDS011;43488;46.934;8.276;2023-06-14T09:58:04;740.08;;;244.23;;
57231;SDS011;43488;46.934;8.276;2023-06-14T10:00:33;741.58;;;241.55;;
57231;SDS011;43488;46.934;8.276;2023-06-14T10:03:45;740.85;;;231.45;;
57231;SDS011;43488;46.934;8.276;2023-06-14T10:05:57;730.55;;;245.65;;
57231;SDS011;43488;46.934;8.276;2023-06-14T10:08:30;765.00;;;256.33;;
57231;SDS011;43488;46.934;8.276;2023-06-14T10:13:28;638.42;;;238.95;;
57231;SDS011;43488;46.934;8.276;2023-06-14T10:16:07;782.60;;;274.55;;
57231;SDS011;43488;46.934;8.276;2023-06-14T10:24:35;793.60;;;339.20;;
57231;SDS011;43488;46.934;8.276;2023-06-14T10:27:08;592.83;;;301.40;;
57231;SDS011;43488;46.934;8.276;2023-06-14T10:32:20;773.13;;;275.90;;
57231;SDS011;43488;46.934;8.276;2023-06-14T10:34:54;816.80;;;315.83;;
57231;SDS011;43488;46.934;8.276;2023-06-14T10:37:27;761.28;;;337.45;;
57231;SDS011;43488;46.934;8.276;2023-06-14T10:39:54;742.35;;;318.25;;
57231;SDS011;43488;46.934;8.276;2023-06-14T10:42:29;785.63;;;329.00;;
57231;SDS011;43488;46.934;8.276;2023-06-14T10:45:00;801.70;;;348.60;;
57231;SDS011;43488;46.934;8.276;2023-06-14T10:47:32;752.45;;;320.88;;
57231;SDS011;43488;46.934;8.276;2023-06-14T10:50:09;720.53;;;292.63;;
57231;SDS011;43488;46.934;8.276;2023-06-14T10:52:41;736.60;;;322.55;;
57231;SDS011;43488;46.934;8.276;2023-06-14T10:55:13;648.65;;;299.25;;
57231;SDS011;43488;46.934;8.276;2023-06-14T10:57:50;701.35;;;322.63;;
57231;SDS011;43488;46.934;8.276;2023-06-14T11:00:25;701.97;;;328.67;;
57231;SDS011;43488;46.934;8.276;2023-06-14T11:06:08;668.35;;;305.13;;
57231;SDS011;43488;46.934;8.276;2023-06-14T11:12:02;689.20;;;311.30;;
57231;SDS011;43488;46.934;8.276;2023-06-14T11:14:30;643.17;;;287.15;;
57231;SDS011;43488;46.934;8.276;2023-06-14T11:16:58;618.05;;;275.73;;
57231;SDS011;43488;46.934;8.276;2023-06-14T11:19:26;630.08;;;284.27;;
57231;SDS011;43488;46.934;8.276;2023-06-14T11:21:55;747.50;;;325.45;;
57231;SDS011;43488;46.934;8.276;2023-06-14T11:24:23;663.72;;;289.20;;
57231;SDS011;43488;46.934;8.276;2023-06-14T11:26:50;676.92;;;303.58;;
57231;SDS011;43488;46.934;8.276;2023-06-14T11:29:21;688.65;;;296.80;;
57231;SDS011;43488;46.934;8.276;2023-06-14T11:31:48;714.42;;;308.25;;
57231;SDS011;43488;46.934;8.276;2023-06-14T11:34:16;728.85;;;301.45;;
57231;SDS011;43488;46.934;8.276;2023-06-14T11:36:44;686.90;;;282.38;;
57231;SDS011;43488;46.934;8.276;2023-06-14T11:39:13;711.90;;;292.23;;
57231;SDS011;43488;46.934;8.276;2023-06-14T11:41:44;744.05;;;325.08;;
57231;SDS011;43488;46.934;8.276;2023-06-14T11:44:12;733.67;;;317.15;;
57231;SDS011;43488;46.934;8.276;2023-06-14T11:46:39;737.15;;;307.55;;
57231;SDS011;43488;46.934;8.276;2023-06-14T11:49:07;718.03;;;318.40;;
57231;SDS011;43488;46.934;8.276;2023-06-14T11:51:35;735.90;;;339.10;;
57231;SDS011;43488;46.934;8.276;2023-06-14T11:54:03;719.03;;;291.65;;
57231;SDS011;43488;46.934;8.276;2023-06-14T11:56:32;761.95;;;340.52;;
57231;SDS011;43488;46.934;8.276;2023-06-14T11:59:01;745.75;;;321.90;;
57231;SDS011;43488;46.934;8.276;2023-06-14T12:01:35;734.90;;;304.92;;
57231;SDS011;43488;46.934;8.276;2023-06-14T12:04:04;765.00;;;327.92;;
57231;SDS011;43488;46.934;8.276;2023-06-14T12:06:33;789.28;;;324.80;;
57231;SDS011;43488;46.934;8.276;2023-06-14T12:09:05;814.80;;;330.75;;
57231;SDS011;43488;46.934;8.276;2023-06-14T12:11:39;799.50;;;340.45;;
57231;SDS011;43488;46.934;8.276;2023-06-14T12:14:07;800.85;;;342.40;;
57231;SDS011;43488;46.934;8.276;2023-06-14T12:16:37;769.72;;;315.42;;
57231;SDS011;43488;46.934;8.276;2023-06-14T12:19:11;810.38;;;341.50;;
57231;SDS011;43488;46.934;8.276;2023-06-14T12:21:47;819.70;;;355.25;;
57231;SDS011;43488;46.934;8.276;2023-06-14T12:24:18;804.85;;;322.75;;
57231;SDS011;43488;46.934;8.276;2023-06-14T12:26:46;773.42;;;326.15;;
57231;SDS011;43488;46.934;8.276;2023-06-14T12:29:13;765.45;;;330.48;;
57231;SDS011;43488;46.934;8.276;2023-06-14T12:31:40;741.30;;;311.92;;
57231;SDS011;43488;46.934;8.276;2023-06-14T12:34:08;750.72;;;330.05;;
57231;SDS011;43488;46.934;8.276;2023-06-14T12:36:35;770.17;;;334.42;;
57231;SDS011;43488;46.934;8.276;2023-06-14T12:39:08;763.20;;;329.20;;
57231;SDS011;43488;46.934;8.276;2023-06-14T12:41:35;767.90;;;342.83;;
57231;SDS011;43488;46.934;8.276;2023-06-14T12:44:03;753.72;;;312.13;;
57231;SDS011;43488;46.934;8.276;2023-06-14T12:46:31;760.28;;;329.30;;
57231;SDS011;43488;46.934;8.276;2023-06-14T12:48:58;725.20;;;312.95;;
57231;SDS011;43488;46.934;8.276;2023-06-14T12:51:26;729.65;;;311.13;;
57231;SDS011;43488;46.934;8.276;2023-06-14T12:53:54;741.38;;;319.58;;
57231;SDS011;43488;46.934;8.276;2023-06-14T12:56:22;725.20;;;298.60;;
57231;SDS011;43488;46.934;8.276;2023-06-14T12:58:49;688.53;;;296.40;;
57231;SDS011;43488;46.934;8.276;2023-06-14T13:01:16;697.85;;;320.75;;
57231;SDS011;43488;46.934;8.276;2023-06-14T13:03:45;719.17;;;296.77;;
57231;SDS011;43488;46.934;8.276;2023-06-14T13:06:13;741.55;;;331.05;;
57231;SDS011;43488;46.934;8.276;2023-06-14T13:08:41;722.20;;;329.27;;
57231;SDS011;43488;46.934;8.276;2023-06-14T13:11:09;695.13;;;322.65;;
57231;SDS011;43488;46.934;8.276;2023-06-14T13:13:36;683.22;;;296.27;;
57231;SDS011;43488;46.934;8.276;2023-06-14T13:16:03;694.97;;;309.65;;
57231;SDS011;43488;46.934;8.276;2023-06-14T13:18:32;695.30;;;306.90;;
57231;SDS011;43488;46.934;8.276;2023-06-14T13:21:01;698.47;;;307.00;;
57231;SDS011;43488;46.934;8.276;2023-06-14T13:23:29;730.30;;;306.67;;
57231;SDS011;43488;46.934;8.276;2023-06-14T13:25:56;761.42;;;347.98;;
57231;SDS011;43488;46.934;8.276;2023-06-14T13:28:23;744.83;;;321.50;;
57231;SDS011;43488;46.934;8.276;2023-06-14T13:30:51;755.10;;;336.85;;
57231;SDS011;43488;46.934;8.276;2023-06-14T13:33:18;722.25;;;318.55;;
57231;SDS011;43488;46.934;8.276;2023-06-14T13:35:45;728.65;;;326.25;;
57231;SDS011;43488;46.934;8.276;2023-06-14T13:38:12;778.80;;;343.92;;
57231;SDS011;43488;46.934;8.276;2023-06-14T13:40:41;738.17;;;335.70;;
57231;SDS011;43488;46.934;8.276;2023-06-14T13:43:08;701.03;;;309.00;;
57231;SDS011;43488;46.934;8.276;2023-06-14T13:45:36;727.08;;;329.73;;
57231;SDS011;43488;46.934;8.276;2023-06-14T13:48:04;732.85;;;320.40;;
57231;SDS011;43488;46.934;8.276;2023-06-14T13:50:32;737.67;;;328.55;;
57231;SDS011;43488;46.934;8.276;2023-06-14T13:53:00;713.22;;;307.73;;
57231;SDS011;43488;46.934;8.276;2023-06-14T13:55:28;734.92;;;318.48;;
57231;SDS011;43488;46.934;8.276;2023-06-14T13:57:55;732.88;;;314.02;;
57231;SDS011;43488;46.934;8.276;2023-06-14T14:00:23;775.25;;;330.17;;
57231;SDS011;43488;46.934;8.276;2023-06-14T14:02:50;748.50;;;298.83;;
57231;SDS011;43488;46.934;8.276;2023-06-14T14:05:17;765.05;;;333.40;;
57231;SDS011;43488;46.934;8.276;2023-06-14T14:07:46;763.80;;;341.75;;
57231;SDS011;43488;46.934;8.276;2023-06-14T14:10:14;775.88;;;339.50;;
57231;SDS011;43488;46.934;8.276;2023-06-14T14:12:41;787.80;;;341.85;;
57231;SDS011;43488;46.934;8.276;2023-06-14T14:15:08;730.15;;;303.63;;
57231;SDS011;43488;46.934;8.276;2023-06-14T14:17:41;613.95;;;332.77;;
57231;SDS011;43488;46.934;8.276;2023-06-14T14:20:09;614.67;;;264.15;;
57231;SDS011;43488;46.934;8.276;2023-06-14T14:22:39;622.85;;;345.38;;
57231;SDS011;43488;46.934;8.276;2023-06-14T14:25:07;629.47;;;274.65;;
57231;SDS011;43488;46.934;8.276;2023-06-14T14:27:36;643.28;;;298.38;;
57231;SDS011;43488;46.934;8.276;2023-06-14T14:30:04;612.03;;;337.40;;
57231;SDS011;43488;46.934;8.276;2023-06-14T14:32:31;638.92;;;291.38;;